Terminal Aerodrome Forecast
Issued by NWS Tampa Bay Area, FL

Home | Current Version | Previous Version | Text Only | Print | Product List | Glossary Off
Versions: 1 2 3 4 5 6 7 8 9 10 11 12 13 14

909
FTUS42 KTBW 252322
TAFFMY
TAF
KFMY 252322Z 2600/2624 09009KT P6SM FEW060
     FM260500 05006KT P6SM SKC
     FM261400 08009KT P6SM SCT035
     FM261700 07010G17KT P6SM SCT040=

USA.gov is the U.S. government's official web portal to all federal, state and local government web resources and services.